»·PEaware :: SKW5209 KLAX-MMLO

SKW5209 :: KLAX-MMLO

FLIGHT INFORMATION

Flight Status: Arrived
Operator:
SkyWest Airlines
More flights by this operator :: More flights under this callsign
Pilot: Cameron C. (12810)
Aircraft: EMBRAER EMB-170/175
(E170)
More flights by this aircraft type
Origin: KLAX Los Angeles Intl
United States
Destination: MMLO De Guanajuato Intl
Mexico
More flights between these airports :: More routes between these airports
Route: PNDAH2 TCATE ASUTA J93 PPE UJ7 HMO UJ5 DGO UJ63 AGU J13 BJX
File this flight plan on PilotEdge
Remarks:
Altitude:
(Current/Filed)
35,000ft
Speed:
(Current/Filed)
500kts
Departed: 05-Oct-17 09:24 PM
Arrived: 06-Oct-17 12:10 AM
Distance/Time
Traveled:
1187nm/2:46
Distance/Time
To Go:
Arrived

Flight Plot

Page will automatically refresh every two minutes.

Flight plan parsing failed; only flown route is shown


Map Options




Map Legend


Flown Route
Filed Route
Departure Airport
Arrival Airport
Navaid (VOR, NDB)
Fix

Horizontal Profiles

Position Reports

Time Latitude Longitude Heading Altitude Ground
Speed
05-Oct-17 21:19 33.947521 -118.400759 239 110ft 0kts
05-Oct-17 21:20 33.947521 -118.400759 239 110ft 0kts
05-Oct-17 21:21 33.947521 -118.400759 239 110ft 0kts
05-Oct-17 21:22 33.947521 -118.400759 239 110ft 0kts
05-Oct-17 21:23 33.947521 -118.400759 239 110ft 0kts
05-Oct-17 21:24 33.947679 -118.400429 254 110ft 1kts
05-Oct-17 21:25 33.947442 -118.400112 4 110ft 0kts
05-Oct-17 21:26 33.947442 -118.400112 4 110ft 0kts
05-Oct-17 21:27 33.949406 -118.401618 333 110ft 13kts
05-Oct-17 21:28 33.947878 -118.423947 262 375ft 208kts
05-Oct-17 21:29 33.942234 -118.504933 264 2846ft 253kts
05-Oct-17 21:30 33.899050 -118.552710 172 5568ft 265kts
05-Oct-17 21:31 33.824977 -118.540122 173 8443ft 274kts
05-Oct-17 21:32 33.745480 -118.527353 175 11379ft 334kts
05-Oct-17 21:33 33.669913 -118.452794 122 14542ft 388kts
05-Oct-17 21:34 33.618087 -118.336526 119 17469ft 407kts
05-Oct-17 21:35 33.565147 -118.213881 119 20308ft 425kts
05-Oct-17 21:36 33.509893 -118.085912 119 23132ft 444kts
05-Oct-17 21:37 33.440491 -117.961918 140 25948ft 459kts
05-Oct-17 21:38 33.344856 -117.858051 144 28810ft 476kts
05-Oct-17 21:39 33.246277 -117.753848 146 31584ft 473kts
05-Oct-17 21:40 33.157751 -117.640187 122 34165ft 486kts
05-Oct-17 21:41 33.108585 -117.486160 115 34957ft 512kts
05-Oct-17 21:42 33.061478 -117.326224 115 34946ft 517kts
05-Oct-17 21:43 33.013670 -117.165122 115 34949ft 516kts
05-Oct-17 21:44 32.965592 -117.004316 115 34963ft 517kts
05-Oct-17 21:45 32.920819 -116.855278 115 34965ft 517kts
05-Oct-17 21:46 32.872435 -116.695093 115 34975ft 517kts
05-Oct-17 21:47 32.823864 -116.535167 115 35000ft 517kts
05-Oct-17 21:48 32.786852 -116.369276 106 35008ft 524kts
05-Oct-17 21:49 32.755683 -116.200470 107 34993ft 524kts
05-Oct-17 21:50 32.724222 -116.031938 107 34887ft 524kts
05-Oct-17 21:51 32.692527 -115.863672 107 34889ft 524kts
05-Oct-17 21:52 32.660547 -115.695393 108 34864ft 524kts
05-Oct-17 21:53 32.596577 -115.546930 128 34869ft 506kts
05-Oct-17 21:54 32.521288 -115.406029 128 34869ft 507kts
05-Oct-17 21:55 32.446214 -115.265763 129 34827ft 506kts
05-Oct-17 21:56 32.371113 -115.125841 129 34852ft 506kts
05-Oct-17 21:57 32.295666 -114.985702 129 34858ft 506kts
05-Oct-17 21:58 32.220361 -114.846277 129 34859ft 506kts
05-Oct-17 21:59 32.144842 -114.706965 129 34861ft 506kts
05-Oct-17 22:00 32.069240 -114.568035 129 34861ft 506kts
05-Oct-17 22:01 31.993213 -114.428813 129 34864ft 507kts
05-Oct-17 22:02 31.918928 -114.293216 129 34851ft 506kts
05-Oct-17 22:03 31.842642 -114.154547 129 34859ft 506kts
05-Oct-17 22:04 31.766273 -114.016204 129 34860ft 506kts
05-Oct-17 22:05 31.689672 -113.877940 129 34862ft 506kts
05-Oct-17 22:06 31.613132 -113.740282 129 34863ft 506kts
05-Oct-17 22:07 31.536386 -113.602742 129 34865ft 506kts
05-Oct-17 22:08 31.459302 -113.465091 129 34866ft 506kts
05-Oct-17 22:09 31.382331 -113.328280 132 34855ft 505kts
05-Oct-17 22:10 31.285083 -113.217207 146 34859ft 488kts
05-Oct-17 22:11 31.183064 -113.113463 146 34883ft 488kts
05-Oct-17 22:12 31.099587 -113.028781 146 34883ft 489kts
05-Oct-17 22:13 30.980318 -112.908019 146 34884ft 489kts
05-Oct-17 22:14 30.896457 -112.823342 146 34885ft 489kts
05-Oct-17 22:15 30.793749 -112.719923 146 34892ft 490kts
05-Oct-17 22:16 30.691014 -112.616775 146 34893ft 490kts
05-Oct-17 22:17 30.588502 -112.514152 146 34894ft 490kts
05-Oct-17 22:18 30.485442 -112.411280 146 34894ft 490kts
05-Oct-17 22:19 30.382696 -112.309003 147 34881ft 489kts
05-Oct-17 22:20 30.279595 -112.206688 147 34881ft 489kts
05-Oct-17 22:21 30.176653 -112.105215 146 34904ft 481kts
05-Oct-17 22:22 30.077091 -112.007450 143 34878ft 469kts
05-Oct-17 22:23 29.978330 -111.909626 143 34881ft 468kts
05-Oct-17 22:24 29.879890 -111.812861 143 34888ft 468kts
05-Oct-17 22:25 29.781277 -111.716306 143 34889ft 468kts
05-Oct-17 22:26 29.682258 -111.619636 143 34890ft 468kts
05-Oct-17 22:27 29.583265 -111.523139 143 34889ft 468kts
05-Oct-17 22:28 29.484324 -111.427080 143 34889ft 468kts
05-Oct-17 22:29 29.385430 -111.331385 144 34885ft 468kts
05-Oct-17 22:30 29.286258 -111.235611 143 34883ft 467kts
05-Oct-17 22:31 29.187322 -111.140304 143 34883ft 467kts
05-Oct-17 22:32 29.088829 -111.043081 137 34869ft 469kts
05-Oct-17 22:33 28.997921 -110.936757 137 34886ft 470kts
05-Oct-17 22:34 28.907069 -110.829726 137 34884ft 470kts
05-Oct-17 22:35 28.816494 -110.723307 137 34889ft 471kts
05-Oct-17 22:36 28.725497 -110.616541 137 34889ft 471kts
05-Oct-17 22:37 28.634549 -110.510317 137 34889ft 470kts
05-Oct-17 22:38 28.543327 -110.403995 137 34889ft 470kts
05-Oct-17 22:39 28.452506 -110.298400 137 34884ft 470kts
05-Oct-17 22:40 28.361066 -110.192364 137 34808ft 471kts
05-Oct-17 22:41 28.269651 -110.086579 137 34722ft 470kts
05-Oct-17 22:42 28.178401 -109.981264 137 34738ft 469kts
05-Oct-17 22:43 28.086951 -109.876115 137 34749ft 470kts
05-Oct-17 22:44 27.995083 -109.770698 137 34750ft 470kts
05-Oct-17 22:45 27.903673 -109.666060 137 34750ft 470kts
05-Oct-17 22:46 27.812148 -109.561559 137 34754ft 470kts
05-Oct-17 22:47 27.720077 -109.457271 136 34752ft 470kts
05-Oct-17 22:48 27.628310 -109.352330 137 34754ft 470kts
05-Oct-17 22:49 27.536690 -109.248600 137 34750ft 470kts
05-Oct-17 22:50 27.447049 -109.147298 137 34750ft 470kts
05-Oct-17 22:51 27.352356 -109.040535 137 34750ft 470kts
05-Oct-17 22:52 27.260156 -108.936840 137 34750ft 470kts
05-Oct-17 22:53 27.167799 -108.833226 137 34750ft 470kts
05-Oct-17 22:54 27.075473 -108.729901 137 34750ft 470kts
05-Oct-17 22:55 26.982987 -108.626652 137 34750ft 470kts
05-Oct-17 22:56 26.890846 -108.524041 137 34752ft 470kts
05-Oct-17 22:57 26.798304 -108.421241 137 34755ft 470kts
05-Oct-17 22:58 26.709579 -108.317926 131 34749ft 472kts
05-Oct-17 22:59 26.631554 -108.199815 129 34752ft 474kts
05-Oct-17 23:00 26.553933 -108.080660 129 34751ft 474kts
05-Oct-17 23:01 26.477192 -107.963460 128 34785ft 465kts
05-Oct-17 23:02 26.401324 -107.847344 128 34803ft 464kts
05-Oct-17 23:03 26.325305 -107.731474 128 34804ft 464kts
05-Oct-17 23:04 26.249015 -107.615535 128 34804ft 463kts
05-Oct-17 23:05 26.173174 -107.500574 128 34804ft 463kts
05-Oct-17 23:06 26.096914 -107.385267 128 34803ft 462kts
05-Oct-17 23:07 26.021240 -107.271152 128 34802ft 462kts
05-Oct-17 23:08 25.945045 -107.156510 129 34801ft 461kts
05-Oct-17 23:09 25.869315 -107.042853 129 34807ft 461kts
05-Oct-17 23:10 25.793370 -106.929150 129 34807ft 461kts
05-Oct-17 23:11 25.717205 -106.815385 129 34806ft 460kts
05-Oct-17 23:12 25.640892 -106.701688 129 34806ft 460kts
05-Oct-17 23:13 25.564819 -106.588614 129 34806ft 459kts
05-Oct-17 23:14 25.488486 -106.475435 129 34805ft 459kts
05-Oct-17 23:15 25.412411 -106.362893 129 34805ft 458kts
05-Oct-17 23:16 25.336528 -106.250884 129 34804ft 457kts
05-Oct-17 23:17 25.260422 -106.138791 129 34803ft 457kts
05-Oct-17 23:18 25.184504 -106.027237 129 34803ft 456kts
05-Oct-17 23:19 25.108185 -105.915406 129 34802ft 456kts
05-Oct-17 23:20 25.032198 -105.804361 129 34802ft 455kts
05-Oct-17 23:21 24.955820 -105.693414 128 34984ft 459kts
05-Oct-17 23:22 24.878248 -105.580466 128 35205ft 476kts
05-Oct-17 23:23 24.796906 -105.462818 126 35218ft 486kts
05-Oct-17 23:24 24.716059 -105.345292 127 35214ft 486kts
05-Oct-17 23:25 24.634312 -105.227097 127 35210ft 486kts
05-Oct-17 23:26 24.552419 -105.109106 127 35210ft 487kts
05-Oct-17 23:27 24.470478 -104.991350 127 35209ft 487kts
05-Oct-17 23:28 24.388412 -104.873598 127 35211ft 487kts
05-Oct-17 23:29 24.306256 -104.756161 127 35211ft 487kts
05-Oct-17 23:30 24.223829 -104.638591 127 35212ft 487kts
05-Oct-17 23:31 24.140360 -104.522548 134 35193ft 486kts
05-Oct-17 23:32 24.039001 -104.424580 139 35215ft 487kts
05-Oct-17 23:33 23.936220 -104.329532 140 35212ft 487kts
05-Oct-17 23:34 23.833598 -104.234844 140 35208ft 487kts
05-Oct-17 23:35 23.730121 -104.139538 140 35209ft 487kts
05-Oct-17 23:36 23.626007 -104.044524 138 35203ft 495kts
05-Oct-17 23:37 23.522102 -103.949583 135 35210ft 483kts
05-Oct-17 23:38 23.420029 -103.855410 136 35209ft 482kts
05-Oct-17 23:39 23.317917 -103.761970 136 35280ft 480kts
05-Oct-17 23:40 23.216811 -103.669775 136 35319ft 481kts
05-Oct-17 23:41 23.114628 -103.576829 136 35320ft 481kts
05-Oct-17 23:42 23.011735 -103.483433 136 34782ft 482kts
05-Oct-17 23:43 22.910862 -103.392077 136 32959ft 467kts
05-Oct-17 23:44 22.816010 -103.306278 136 31089ft 453kts
05-Oct-17 23:45 22.719393 -103.219066 136 28782ft 435kts
05-Oct-17 23:46 22.628095 -103.136806 136 26533ft 420kts
05-Oct-17 23:47 22.540177 -103.057732 137 24305ft 407kts
05-Oct-17 23:48 22.454643 -102.980976 137 22269ft 392kts
05-Oct-17 23:49 22.371746 -102.906693 137 20666ft 385kts
05-Oct-17 23:50 22.289871 -102.833930 136 19055ft 379kts
05-Oct-17 23:51 22.210252 -102.762454 136 17447ft 368kts
05-Oct-17 23:52 22.132950 -102.693053 137 15833ft 360kts
05-Oct-17 23:53 22.057621 -102.625538 139 14201ft 348kts
05-Oct-17 23:54 21.983598 -102.560244 140 12606ft 341kts
05-Oct-17 23:55 21.911302 -102.496097 139 11041ft 334kts
05-Oct-17 23:56 21.841009 -102.433826 139 9938ft 327kts
05-Oct-17 23:57 21.770424 -102.371284 139 9931ft 328kts
05-Oct-17 23:58 21.702289 -102.307299 132 9951ft 329kts
05-Oct-17 23:59 21.640416 -102.235200 132 10128ft 329kts
06-Oct-17 00:00 21.583700 -102.168520 131 10104ft 292kts
06-Oct-17 00:01 21.528583 -102.103576 131 10133ft 294kts
06-Oct-17 00:02 21.473510 -102.038849 130 10129ft 294kts
06-Oct-17 00:03 21.418183 -101.974145 131 10161ft 295kts
06-Oct-17 00:04 21.362973 -101.909289 130 10202ft 290kts
06-Oct-17 00:05 21.315911 -101.854175 130 10258ft 242kts
06-Oct-17 00:06 21.271536 -101.802192 130 9737ft 236kts
06-Oct-17 00:07 21.227725 -101.750921 130 8600ft 231kts
06-Oct-17 00:08 21.184906 -101.700908 130 8454ft 214kts
06-Oct-17 00:09 21.145999 -101.655544 130 7891ft 207kts
06-Oct-17 00:10 21.107440 -101.610538 130 7495ft 205kts
06-Oct-17 00:11 21.071237 -101.568448 129 7427ft 180kts
06-Oct-17 00:12 21.037318 -101.529257 130 6863ft 165kts
06-Oct-17 00:13 21.006245 -101.494959 131 6016ft 159kts
06-Oct-17 00:14 20.991318 -101.478526 156 5920ft 17kts
06-Oct-17 00:15 20.988816 -101.478720 222 5919ft 0kts
06-Oct-17 00:16 20.988816 -101.478720 222 5919ft 0kts

Navigation Log

Ident Type
Flight plan parsing failed, navigation log unavailable